Time;durP1;ratioP1;P1;durP2;ratioP2;P2;SDS_P1;SDS_P2;PMS_P1;PMS_P2;Temp;Humidity;BMP_temperature;BMP_pressure;BME280_temperature;BME280_humidity;BME280_pressure;Samples;Min_cycle;Max_cycle;Signal;HPM_P1;HPM_P2
2021/12/31 00:01:27;;;;;;;9.53;8.73;;;13.00;63.20;;;;;;6334204;27;20608;-58
2021/12/31 00:04:32;;;;;;;8.10;7.50;;;13.00;63.00;;;;;;6330040;28;20693;-57
2021/12/31 00:07:34;;;;;;;8.10;7.60;;;13.00;64.00;;;;;;6331040;27;20312;-59
2021/12/31 00:10:37;;;;;;;8.53;8.13;;;13.00;63.20;;;;;;6332798;27;20235;-58
2021/12/31 00:13:40;;;;;;;8.33;7.83;;;13.00;64.40;;;;;;6327118;27;20240;-58
2021/12/31 00:16:43;;;;;;;8.87;8.27;;;13.00;64.40;;;;;;6333445;27;20734;-58
2021/12/31 00:19:48;;;;;;;9.20;8.70;;;13.00;65.00;;;;;;6348989;27;20267;-58
2021/12/31 00:23:02;;;;;;;8.90;8.37;;;12.90;65.40;;;;;;6331946;28;20489;-57
2021/12/31 00:26:05;;;;;;;9.20;8.60;;;12.90;65.20;;;;;;6335753;27;20232;-58
2021/12/31 00:29:08;;;;;;;10.60;9.83;;;12.90;65.70;;;;;;6332761;28;20444;-58
2021/12/31 00:32:10;;;;;;;10.40;9.50;;;12.90;66.40;;;;;;6332920;28;20254;-59
2021/12/31 00:35:15;;;;;;;11.20;10.30;;;12.90;66.60;;;;;;6333156;27;20246;-57
2021/12/31 00:38:17;;;;;;;10.80;9.80;;;12.90;66.90;;;;;;6331342;28;20292;-58
2021/12/31 00:41:20;;;;;;;10.70;9.90;;;12.90;66.60;;;;;;6328969;28;20373;-57
2021/12/31 00:44:25;;;;;;;10.60;9.80;;;12.80;66.60;;;;;;6325775;27;20308;-57
2021/12/31 00:47:28;;;;;;;11.37;10.47;;;12.90;66.70;;;;;;6335791;27;20236;-57
2021/12/31 00:50:32;;;;;;;10.97;10.17;;;12.90;66.30;;;;;;6320164;28;20224;-57
2021/12/31 00:53:35;;;;;;;11.17;10.37;;;12.90;66.20;;;;;;6331328;28;20386;-57
2021/12/31 00:56:38;;;;;;;10.47;9.63;;;12.90;65.90;;;;;;6338794;27;20224;-58
2021/12/31 00:59:41;;;;;;;10.83;10.10;;;13.00;65.30;;;;;;6331364;27;20232;-58
2021/12/31 01:02:46;;;;;;;10.90;10.10;;;13.00;64.40;;;;;;6331914;28;20259;-56
2021/12/31 01:05:50;;;;;;;11.47;10.37;;;13.00;64.40;;;;;;6323736;28;20596;-58
2021/12/31 01:08:53;;;;;;;10.57;9.73;;;13.00;64.40;;;;;;6329938;27;20339;-57
2021/12/31 01:11:56;;;;;;;10.00;9.30;;;13.00;64.40;;;;;;6332131;28;20546;-58
2021/12/31 01:15:03;;;;;;;9.73;9.13;;;13.10;63.70;;;;;;6328518;27;20309;-57
2021/12/31 01:18:20;;;;;;;10.77;9.83;;;13.00;63.80;;;;;;6335423;27;20288;-58
2021/12/31 01:21:24;;;;;;;11.00;10.10;;;13.00;64.40;;;;;;6335858;27;20327;-57
2021/12/31 01:24:28;;;;;;;9.57;8.97;;;13.10;63.90;;;;;;6330731;27;20227;-57
2021/12/31 01:27:32;;;;;;;10.63;9.63;;;13.10;62.50;;;;;;6331689;27;20266;-57
2021/12/31 01:30:34;;;;;;;9.90;9.20;;;13.10;62.70;;;;;;6332477;28;20785;-58
2021/12/31 01:33:37;;;;;;;10.63;9.63;;;13.10;62.40;;;;;;6331259;28;20653;-58
2021/12/31 01:36:41;;;;;;;9.90;9.30;;;13.10;62.70;;;;;;6331069;28;20290;-56
2021/12/31 01:39:44;;;;;;;10.30;9.50;;;13.20;62.30;;;;;;6328335;28;20256;-56
2021/12/31 01:42:47;;;;;;;9.23;8.63;;;13.20;62.20;;;;;;6329137;28;20235;-57
2021/12/31 01:45:55;;;;;;;10.10;8.67;;;13.20;61.90;;;;;;6331561;28;20361;-58
2021/12/31 01:49:02;;;;;;;9.43;8.83;;;13.10;61.90;;;;;;6336389;27;20476;-58
2021/12/31 01:52:08;;;;;;;8.80;8.17;;;13.20;61.90;;;;;;6327024;28;20579;-57
2021/12/31 01:55:13;;;;;;;8.50;8.00;;;13.20;61.20;;;;;;6329677;27;20663;-57
2021/12/31 01:58:19;;;;;;;7.97;7.47;;;13.20;60.30;;;;;;6330503;28;20304;-57
2021/12/31 02:01:22;;;;;;;7.27;6.77;;;13.20;58.90;;;;;;6331532;28;20278;-58
2021/12/31 02:04:25;;;;;;;7.00;6.70;;;13.30;57.40;;;;;;6331001;28;20231;-58
2021/12/31 02:07:30;;;;;;;7.80;7.20;;;13.30;57.00;;;;;;6329476;28;20259;-57
2021/12/31 02:10:33;;;;;;;6.80;6.50;;;13.30;56.80;;;;;;6330959;28;20234;-57
2021/12/31 02:13:36;;;;;;;6.70;6.40;;;13.30;57.10;;;;;;6328507;28;20732;-57
2021/12/31 02:16:39;;;;;;;6.60;6.33;;;13.30;56.70;;;;;;6326590;28;21822;-57
2021/12/31 02:19:54;;;;;;;7.67;6.73;;;13.30;56.00;;;;;;6343212;27;20251;-57
2021/12/31 02:23:06;;;;;;;6.30;6.00;;;13.30;54.70;;;;;;6324230;28;20436;-58
2021/12/31 02:26:09;;;;;;;7.00;6.50;;;13.40;53.50;;;;;;6334598;27;20238;-59
2021/12/31 02:29:12;;;;;;;7.13;6.77;;;13.40;53.90;;;;;;6331356;28;20251;-57
2021/12/31 02:32:15;;;;;;;7.17;6.80;;;13.40;54.80;;;;;;6329022;28;20269;-58
2021/12/31 02:35:18;;;;;;;7.23;6.73;;;13.40;54.40;;;;;;6331113;28;20374;-57
2021/12/31 02:38:22;;;;;;;7.50;7.00;;;13.40;54.50;;;;;;6326914;28;20283;-56
2021/12/31 02:41:25;;;;;;;8.70;7.90;;;13.30;54.60;;;;;;6329047;28;20454;-58
2021/12/31 02:44:28;;;;;;;7.73;7.33;;;13.30;53.90;;;;;;6330283;28;20485;-57
2021/12/31 02:47:30;;;;;;;8.03;7.53;;;13.30;53.70;;;;;;6335132;27;20758;-58
2021/12/31 02:50:38;;;;;;;8.57;7.87;;;13.30;54.50;;;;;;6333397;28;20764;-58
2021/12/31 02:53:45;;;;;;;8.40;8.00;;;13.30;54.80;;;;;;6331952;28;20281;-57
2021/12/31 02:56:48;;;;;;;8.83;8.33;;;13.20;55.10;;;;;;6324120;28;20712;-57
2021/12/31 02:59:51;;;;;;;9.57;8.87;;;13.20;53.60;;;;;;6323583;28;20804;-57
2021/12/31 03:02:55;;;;;;;9.67;8.97;;;13.30;52.90;;;;;;6331278;28;20309;-58
2021/12/31 03:05:58;;;;;;;9.53;8.83;;;13.40;51.20;;;;;;6319016;28;20228;-57
2021/12/31 03:09:02;;;;;;;9.30;8.67;;;13.30;50.20;;;;;;6329689;28;20236;-55
2021/12/31 03:12:07;;;;;;;9.83;9.13;;;13.30;51.00;;;;;;6330732;28;20385;-58
2021/12/31 03:15:12;;;;;;;9.80;9.03;;;13.30;50.80;;;;;;6326824;28;20247;-58
2021/12/31 03:18:16;;;;;;;9.60;9.00;;;13.30;50.80;;;;;;6335366;27;20232;-57
2021/12/31 03:21:22;;;;;;;10.53;9.63;;;13.30;51.10;;;;;;6340371;27;20327;-57
2021/12/31 03:24:26;;;;;;;10.30;9.53;;;13.30;50.90;;;;;;6335132;27;20323;-57
2021/12/31 03:27:30;;;;;;;10.90;10.10;;;13.20;51.10;;;;;;6335535;27;20244;-57
2021/12/31 03:30:32;;;;;;;11.10;10.30;;;13.20;51.20;;;;;;6335117;27;20236;-57
2021/12/31 03:33:35;;;;;;;10.40;9.70;;;13.20;51.20;;;;;;6333892;27;20242;-55
2021/12/31 03:36:38;;;;;;;10.20;9.50;;;13.20;51.20;;;;;;6335805;28;20638;-58
2021/12/31 03:39:42;;;;;;;10.57;9.80;;;13.20;51.50;;;;;;6325644;28;20392;-58
2021/12/31 03:42:45;;;;;;;11.37;10.47;;;13.50;51.40;;;;;;6331336;27;20266;-58
2021/12/31 03:45:50;;;;;;;10.47;9.77;;;13.20;51.10;;;;;;6330572;27;20333;-58
2021/12/31 03:48:53;;;;;;;9.77;9.17;;;13.20;51.20;;;;;;6346845;27;20324;-56
2021/12/31 03:51:56;;;;;;;10.53;9.73;;;13.20;51.40;;;;;;6335754;27;20319;-57
2021/12/31 03:55:00;;;;;;;10.77;9.77;;;13.20;51.50;;;;;;6334693;27;20681;-58
2021/12/31 03:58:03;;;;;;;10.30;9.60;;;13.20;51.20;;;;;;6335962;27;20240;-58
2021/12/31 04:01:06;;;;;;;9.97;9.27;;;13.30;51.10;;;;;;6335887;28;20277;-58
2021/12/31 04:04:10;;;;;;;10.70;9.83;;;13.20;51.10;;;;;;6327224;28;20232;-58
2021/12/31 04:07:13;;;;;;;9.80;9.10;;;13.30;50.40;;;;;;6328702;27;20728;-57
2021/12/31 04:10:17;;;;;;;10.23;9.47;;;13.30;50.40;;;;;;6334062;28;20283;-57
2021/12/31 04:13:19;;;;;;;9.90;9.20;;;13.20;50.50;;;;;;6334448;27;20240;-57
2021/12/31 04:16:22;;;;;;;9.43;8.83;;;13.20;51.20;;;;;;6326580;28;20311;-57
2021/12/31 04:19:25;;;;;;;10.47;9.57;;;13.20;51.20;;;;;;6343400;27;20301;-57
2021/12/31 04:22:30;;;;;;;10.07;9.27;;;13.20;51.50;;;;;;6326248;28;20307;-57
2021/12/31 04:25:35;;;;;;;9.77;9.07;;;13.20;50.50;;;;;;6339183;27;20335;-57
2021/12/31 04:28:38;;;;;;;9.07;8.40;;;13.20;50.60;;;;;;6333511;28;20284;-58
2021/12/31 04:31:40;;;;;;;9.73;9.10;;;13.20;50.20;;;;;;6314615;27;20820;-58
2021/12/31 04:34:43;;;;;;;10.03;9.23;;;13.20;50.90;;;;;;6327370;28;20489;-57
2021/12/31 04:37:46;;;;;;;10.07;9.37;;;13.20;48.50;;;;;;6328849;27;20736;-58
2021/12/31 04:40:50;;;;;;;9.83;9.10;;;13.20;48.60;;;;;;6319833;27;20309;-58
2021/12/31 04:43:53;;;;;;;10.00;9.37;;;13.20;47.80;;;;;;6322147;27;20235;-58
2021/12/31 04:46:56;;;;;;;8.87;8.20;;;13.20;47.20;;;;;;6330366;27;20240;-57
2021/12/31 04:49:58;;;;;;;9.43;8.83;;;13.10;47.40;;;;;;6324707;28;20313;-58
2021/12/31 04:53:02;;;;;;;9.07;8.43;;;13.10;46.30;;;;;;6309747;28;20785;-58
2021/12/31 04:56:06;;;;;;;8.20;7.50;;;13.00;45.80;;;;;;6308745;28;20303;-58
2021/12/31 04:59:09;;;;;;;7.47;7.13;;;13.10;43.60;;;;;;6328717;27;20724;-58
2021/12/31 05:02:12;;;;;;;7.93;7.40;;;13.00;43.10;;;;;;6323884;28;20731;-58
2021/12/31 05:05:15;;;;;;;6.93;6.43;;;13.10;41.40;;;;;;6320738;28;20332;-58
2021/12/31 05:08:19;;;;;;;7.03;6.53;;;13.10;39.70;;;;;;6325759;28;20253;-50
2021/12/31 05:11:23;;;;;;;6.07;5.80;;;13.10;36.80;;;;;;6322397;28;20319;-58
2021/12/31 05:14:25;;;;;;;5.80;5.50;;;13.10;35.90;;;;;;6326444;28;20724;-58
2021/12/31 05:17:29;;;;;;;6.93;6.50;;;13.10;35.40;;;;;;6334927;27;20243;-57
2021/12/31 05:20:32;;;;;;;6.33;5.90;;;13.20;33.70;;;;;;6326502;27;20235;-57
2021/12/31 05:23:34;;;;;;;6.40;5.97;;;13.10;34.00;;;;;;6323209;28;20296;-57
2021/12/31 05:26:38;;;;;;;6.33;6.13;;;13.20;32.40;;;;;;6338351;27;20284;-57
2021/12/31 05:29:41;;;;;;;6.00;5.50;;;13.20;31.90;;;;;;6331908;28;20315;-56
2021/12/31 05:32:44;;;;;;;5.57;5.37;;;13.20;31.40;;;;;;6325130;28;20770;-57
2021/12/31 05:35:46;;;;;;;5.97;5.67;;;13.20;30.30;;;;;;6330544;28;20235;-57
2021/12/31 05:38:49;;;;;;;5.87;5.47;;;13.20;29.50;;;;;;6324729;27;20318;-56
2021/12/31 05:41:53;;;;;;;5.60;5.40;;;13.20;29.00;;;;;;6331256;28;20352;-55
2021/12/31 05:44:56;;;;;;;5.83;5.53;;;13.20;28.50;;;;;;6329714;27;20259;-57
2021/12/31 05:47:59;;;;;;;5.33;5.03;;;13.20;28.10;;;;;;6329620;28;20240;-57
2021/12/31 05:51:02;;;;;;;6.13;5.90;;;13.20;27.70;;;;;;6326898;28;20241;-58
2021/12/31 05:54:05;;;;;;;5.80;5.60;;;13.20;27.20;;;;;;6328433;27;20310;-57
2021/12/31 05:57:09;;;;;;;5.53;5.27;;;13.20;26.50;;;;;;6330545;28;20776;-56
2021/12/31 06:00:12;;;;;;;5.33;5.13;;;13.20;25.60;;;;;;6332127;28;20524;-56
2021/12/31 06:03:15;;;;;;;5.97;5.67;;;13.20;24.90;;;;;;6331096;28;20672;-57
2021/12/31 06:06:18;;;;;;;5.60;5.30;;;13.20;25.20;;;;;;6326988;28;20474;-57
2021/12/31 06:09:20;;;;;;;5.40;5.20;;;13.30;23.90;;;;;;6329575;28;20243;-57
2021/12/31 06:12:25;;;;;;;5.43;5.20;;;13.20;23.70;;;;;;6332034;28;20780;-57
2021/12/31 06:15:29;;;;;;;5.27;5.17;;;13.30;23.60;;;;;;6331255;28;20364;-57
2021/12/31 06:18:32;;;;;;;5.70;5.50;;;13.30;23.00;;;;;;6331838;28;20369;-56
2021/12/31 06:21:35;;;;;;;5.80;5.40;;;13.20;23.80;;;;;;6337293;27;20381;-56
2021/12/31 06:24:39;;;;;;;6.17;5.87;;;13.20;23.30;;;;;;6328517;28;20285;-58
2021/12/31 06:27:43;;;;;;;5.80;5.60;;;13.20;23.30;;;;;;6333699;28;20841;-58
2021/12/31 06:30:46;;;;;;;6.23;5.87;;;13.20;23.00;;;;;;6326533;28;20322;-57
2021/12/31 06:33:48;;;;;;;6.10;5.80;;;13.30;23.80;;;;;;6333710;27;20251;-56
2021/12/31 06:36:51;;;;;;;6.20;5.80;;;13.20;23.30;;;;;;6334118;28;20235;-58
2021/12/31 06:39:54;;;;;;;5.73;5.47;;;13.20;23.20;;;;;;6327725;28;20235;-57
2021/12/31 06:42:58;;;;;;;5.97;5.80;;;13.20;23.80;;;;;;6326166;28;20331;-58
2021/12/31 06:46:01;;;;;;;6.97;6.50;;;13.30;23.30;;;;;;6331733;28;20304;-57
2021/12/31 06:49:04;;;;;;;5.97;5.77;;;13.20;23.00;;;;;;6328175;28;20319;-56
2021/12/31 06:52:07;;;;;;;6.33;6.03;;;13.30;23.10;;;;;;6325317;27;20365;-57
2021/12/31 06:55:11;;;;;;;7.00;6.50;;;13.20;23.30;;;;;;6338558;27;20661;-57
2021/12/31 06:58:15;;;;;;;6.47;6.17;;;13.30;23.10;;;;;;6335674;27;20228;-56
2021/12/31 07:01:17;;;;;;;6.03;5.83;;;13.20;23.50;;;;;;6331550;28;20264;-57
2021/12/31 07:04:20;;;;;;;6.50;6.00;;;13.20;23.00;;;;;;6332138;28;20296;-58
2021/12/31 07:07:24;;;;;;;6.80;6.40;;;13.20;23.60;;;;;;6329325;27;20740;-57
2021/12/31 07:10:26;;;;;;;6.53;6.13;;;13.20;23.40;;;;;;6329563;28;20258;-58
2021/12/31 07:13:31;;;;;;;7.83;6.10;;;13.20;23.80;;;;;;6332584;27;20330;-57
2021/12/31 07:16:33;;;;;;;6.07;5.77;;;13.30;22.70;;;;;;6334728;27;20684;-57
2021/12/31 07:19:36;;;;;;;5.83;5.43;;;13.20;22.70;;;;;;6331954;27;20274;-57
2021/12/31 07:22:39;;;;;;;5.93;5.63;;;13.20;22.00;;;;;;6329795;27;20286;-58
2021/12/31 07:25:43;;;;;;;6.60;6.20;;;13.20;22.20;;;;;;6333964;27;20227;-57
2021/12/31 07:28:47;;;;;;;6.37;6.07;;;13.20;22.00;;;;;;6328552;28;20734;-57
2021/12/31 07:31:49;;;;;;;6.53;6.27;;;13.20;22.40;;;;;;6333354;27;20344;-58
2021/12/31 07:34:52;;;;;;;6.00;5.70;;;13.20;22.40;;;;;;6338955;27;20295;-57
2021/12/31 07:37:56;;;;;;;6.40;6.00;;;13.20;22.00;;;;;;6327183;27;20303;-57
2021/12/31 07:40:59;;;;;;;5.70;5.50;;;13.20;21.40;;;;;;6328357;27;20316;-56
2021/12/31 07:44:03;;;;;;;5.97;5.63;;;13.20;21.30;;;;;;6333420;28;20347;-56
2021/12/31 07:47:06;;;;;;;6.23;5.80;;;13.20;20.30;;;;;;6328226;28;20319;-56
2021/12/31 07:50:09;;;;;;;6.03;5.70;;;13.20;19.90;;;;;;6333162;27;20238;-57
2021/12/31 07:53:12;;;;;;;5.93;5.63;;;13.20;19.90;;;;;;6334387;28;20495;-54
2021/12/31 07:56:18;;;;;;;5.60;5.50;;;13.30;19.10;;;;;;6314267;27;20323;-56
2021/12/31 07:59:22;;;;;;;6.20;5.80;;;13.40;18.90;;;;;;6330768;28;20432;-57
2021/12/31 08:02:25;;;;;;;6.30;6.00;;;13.30;18.20;;;;;;6325659;28;20228;-57
2021/12/31 08:05:30;;;;;;;5.67;5.43;;;13.40;17.70;;;;;;6330600;28;20624;-57
2021/12/31 08:08:33;;;;;;;5.50;5.30;;;13.40;17.30;;;;;;6325178;27;20733;-56
2021/12/31 08:11:37;;;;;;;5.57;5.13;;;13.40;16.50;;;;;;6328651;28;20242;-57
2021/12/31 08:14:41;;;;;;;5.77;5.27;;;13.40;16.00;;;;;;6334453;27;20385;-56
2021/12/31 08:17:44;;;;;;;5.40;4.90;;;13.40;16.40;;;;;;6328443;27;20385;-57
2021/12/31 08:20:47;;;;;;;5.10;4.80;;;13.40;16.00;;;;;;6325585;28;20729;-56
2021/12/31 08:23:50;;;;;;;5.30;5.20;;;13.40;15.00;;;;;;6330006;27;20318;-56
2021/12/31 08:26:52;;;;;;;5.13;5.00;;;13.40;14.90;;;;;;6325046;27;20243;-55
2021/12/31 08:29:56;;;;;;;5.87;4.80;;;13.50;13.20;;;;;;6333652;27;21015;-58
2021/12/31 08:32:59;;;;;;;4.90;4.70;;;13.50;12.00;;;;;;6329982;27;22553;-57
2021/12/31 08:36:02;;;;;;;7.10;4.90;;;13.60;12.10;;;;;;6327318;28;20326;-56
2021/12/31 08:39:08;;;;;;;5.00;4.70;;;13.60;11.20;;;;;;6329582;28;20380;-57
2021/12/31 08:42:10;;;;;;;4.57;4.47;;;13.60;10.60;;;;;;6329657;28;20885;-56
2021/12/31 08:45:15;;;;;;;4.80;4.50;;;13.50;10.10;;;;;;6330168;27;20254;-58
2021/12/31 08:48:17;;;;;;;4.13;4.03;;;13.60;10.30;;;;;;6326164;28;20252;-58
2021/12/31 08:51:20;;;;;;;4.17;3.93;;;13.60;9.40;;;;;;6325679;28;20318;-55
2021/12/31 08:54:26;;;;;;;4.33;4.13;;;13.60;8.70;;;;;;6330197;28;20238;-56
2021/12/31 08:57:29;;;;;;;4.20;3.97;;;13.70;8.80;;;;;;6327272;28;20320;-58
2021/12/31 09:00:34;;;;;;;4.43;4.10;;;13.70;8.20;;;;;;6329291;27;20235;-58
2021/12/31 09:03:36;;;;;;;3.97;3.77;;;13.60;8.40;;;;;;6332017;28;20852;-60
2021/12/31 09:06:39;;;;;;;3.83;3.53;;;13.70;8.00;;;;;;6328297;28;20311;-58
2021/12/31 09:09:42;;;;;;;3.90;3.70;;;13.60;7.80;;;;;;6328513;28;20239;-57
2021/12/31 09:12:46;;;;;;;3.93;3.67;;;13.80;7.60;;;;;;6324396;27;20627;-58
2021/12/31 09:15:52;;;;;;;4.00;3.80;;;13.70;7.10;;;;;;6331062;27;20280;-55
2021/12/31 09:18:55;;;;;;;3.83;3.63;;;13.70;6.70;;;;;;6330406;28;20684;-58
2021/12/31 09:21:58;;;;;;;4.63;4.27;;;13.70;7.90;;;;;;6324900;28;20240;-57
2021/12/31 09:25:00;;;;;;;4.17;3.97;;;13.70;7.10;;;;;;6329985;27;20509;-56
2021/12/31 09:28:04;;;;;;;4.17;3.83;;;13.70;7.60;;;;;;6331298;28;20320;-58
2021/12/31 09:31:08;;;;;;;4.10;3.90;;;13.70;7.10;;;;;;6324780;27;20231;-56
2021/12/31 09:34:11;;;;;;;4.00;3.80;;;13.70;6.90;;;;;;6331037;27;20250;-57
2021/12/31 09:37:14;;;;;;;3.97;3.67;;;13.70;6.70;;;;;;6332428;28;20326;-57
2021/12/31 09:40:18;;;;;;;4.17;3.93;;;13.70;5.60;;;;;;6328843;28;20244;-58
2021/12/31 09:43:21;;;;;;;4.50;3.83;;;13.80;4.60;;;;;;6333093;27;20304;-57
2021/12/31 09:46:26;;;;;;;4.30;4.20;;;13.80;4.60;;;;;;6326237;28;20378;-57
2021/12/31 09:49:28;;;;;;;4.10;3.70;;;13.80;3.80;;;;;;6325182;28;20235;-57
2021/12/31 09:52:33;;;;;;;4.03;3.80;;;13.90;3.70;;;;;;6333095;28;20638;-57
2021/12/31 09:55:40;;;;;;;3.57;3.57;;;13.90;3.40;;;;;;6331726;28;20231;-57
2021/12/31 09:58:43;;;;;;;4.13;3.67;;;13.90;2.80;;;;;;6333575;28;20606;-62
2021/12/31 10:01:48;;;;;;;3.67;3.50;;;13.80;3.20;;;;;;6323017;28;20240;-56
2021/12/31 10:04:52;;;;;;;5.70;3.50;;;13.80;2.90;;;;;;6323689;27;20243;-57
2021/12/31 10:07:55;;;;;;;3.37;3.27;;;13.80;2.50;;;;;;6331576;27;20331;-58
2021/12/31 10:11:05;;;;;;;3.60;3.50;;;13.90;1.90;;;;;;6329376;28;20245;-57
2021/12/31 10:14:08;;;;;;;3.50;3.20;;;13.90;1.60;;;;;;6328586;27;20324;-58
2021/12/31 10:17:12;;;;;;;3.40;3.20;;;13.90;1.00;;;;;;6321741;28;20388;-57
2021/12/31 10:20:16;;;;;;;3.33;3.30;;;13.90;1.00;;;;;;6330501;28;20807;-58
2021/12/31 10:23:20;;;;;;;3.47;3.37;;;13.90;1.00;;;;;;6328526;28;20379;-62
2021/12/31 10:26:22;;;;;;;3.50;3.30;;;13.90;1.00;;;;;;6329466;27;20320;-57
2021/12/31 10:29:26;;;;;;;3.23;3.23;;;13.90;1.00;;;;;;6336047;28;20251;-57
2021/12/31 10:32:32;;;;;;;3.20;3.10;;;13.90;1.00;;;;;;6336639;27;20775;-57
2021/12/31 10:35:40;;;;;;;3.50;3.30;;;13.90;1.00;;;;;;6330205;28;20692;-59
2021/12/31 10:38:43;;;;;;;4.10;4.00;;;13.80;1.10;;;;;;6331408;28;20388;-57
2021/12/31 10:41:51;;;;;;;3.97;3.77;;;13.80;1.40;;;;;;6333945;27;20917;-57
2021/12/31 10:44:55;;;;;;;3.90;3.70;;;13.80;2.40;;;;;;6329748;27;20236;-55
2021/12/31 10:48:06;;;;;;;4.17;3.80;;;13.90;1.50;;;;;;6334991;27;20243;-57
2021/12/31 10:51:09;;;;;;;3.40;3.20;;;13.80;1.90;;;;;;6331531;27;20385;-59
2021/12/31 10:54:28;;;;;;;3.97;3.67;;;13.70;2.10;;;;;;6331762;27;20268;-57
2021/12/31 10:57:35;;;;;;;3.43;3.33;;;13.70;2.80;;;;;;6321689;27;20322;-57
2021/12/31 11:00:44;;;;;;;3.70;3.40;;;13.70;3.40;;;;;;6329365;28;20232;-56
2021/12/31 11:03:49;;;;;;;3.73;3.50;;;13.60;4.30;;;;;;6326254;27;20307;-59
2021/12/31 11:07:00;;;;;;;3.50;3.37;;;13.60;3.40;;;;;;6330612;27;20301;-55
2021/12/31 11:10:04;;;;;;;3.27;3.27;;;13.70;2.80;;;;;;6332471;27;20240;-56
2021/12/31 11:13:12;;;;;;;3.40;3.30;;;13.60;3.10;;;;;;6331820;27;20244;-55
2021/12/31 11:16:15;;;;;;;3.20;3.10;;;13.60;2.90;;;;;;6324250;28;20830;-60
2021/12/31 11:19:19;;;;;;;3.20;3.10;;;13.70;2.30;;;;;;6322799;28;20296;-58
2021/12/31 11:22:25;;;;;;;3.73;3.53;;;13.70;2.30;;;;;;6324161;27;20287;-56
2021/12/31 11:25:29;;;;;;;3.63;3.33;;;13.60;2.80;;;;;;6327838;28;20232;-57
2021/12/31 11:28:33;;;;;;;3.97;3.67;;;13.60;3.00;;;;;;6332967;27;20323;-56
2021/12/31 11:31:41;;;;;;;3.33;3.23;;;13.60;2.30;;;;;;6328030;27;20350;-56
2021/12/31 11:34:45;;;;;;;3.03;2.93;;;13.70;1.50;;;;;;6327722;28;20307;-56
2021/12/31 11:37:49;;;;;;;3.50;3.27;;;13.80;1.00;;;;;;6328129;28;20856;-55
2021/12/31 11:41:04;;;;;;;4.10;3.43;;;13.70;1.00;;;;;;6324686;28;20239;-57
2021/12/31 11:44:08;;;;;;;3.50;3.30;;;13.70;1.20;;;;;;6330884;27;20283;-56
2021/12/31 11:47:14;;;;;;;3.30;3.20;;;13.70;1.00;;;;;;6335296;27;20322;-56
2021/12/31 11:50:29;;;;;;;3.27;3.17;;;13.80;1.00;;;;;;6334123;28;20377;-57
2021/12/31 11:53:32;;;;;;;4.20;3.93;;;13.70;1.10;;;;;;6333145;27;20313;-56
2021/12/31 11:57:09;;;;;;;3.30;3.10;;;13.80;1.00;;;;;;6332914;28;20929;-55
2021/12/31 12:00:25;;;;;;;3.50;3.10;;;13.70;1.00;;;;;;6325305;27;20220;-57
2021/12/31 12:03:30;;;;;;;4.10;3.53;;;13.80;1.00;;;;;;6332373;27;20370;-57
2021/12/31 12:06:54;;;;;;;3.13;3.03;;;13.80;1.00;;;;;;6327718;27;20239;-57
2021/12/31 12:10:37;;;;;;;3.30;3.10;;;13.80;1.00;;;;;;6324349;27;20231;-56
2021/12/31 12:13:40;;;;;;;3.43;3.33;;;13.80;1.00;;;;;;6280574;28;20247;-56
2021/12/31 12:16:56;;;;;;;3.10;3.00;;;13.90;1.00;;;;;;6328220;28;20326;-57
2021/12/31 12:20:08;;;;;;;3.57;3.27;;;13.80;1.00;;;;;;6329744;28;20288;-56
2021/12/31 12:23:15;;;;;;;3.20;3.00;;;13.90;1.00;;;;;;6333481;27;20232;-56
2021/12/31 12:26:21;;;;;;;3.53;3.17;;;13.90;1.00;;;;;;6329500;27;20258;-56
2021/12/31 12:29:26;;;;;;;3.40;3.20;;;13.90;1.00;;;;;;6328433;28;20232;-55
2021/12/31 12:32:33;;;;;;;3.53;3.43;;;14.00;1.00;;;;;;6324052;27;20284;-56
2021/12/31 12:35:38;;;;;;;3.17;2.97;;;14.10;1.00;;;;;;6326617;28;20783;-57
2021/12/31 12:38:42;;;;;;;3.17;2.97;;;14.00;1.00;;;;;;6327041;27;20292;-56
2021/12/31 12:41:49;;;;;;;2.97;2.77;;;14.10;1.00;;;;;;6330020;27;20262;-56
2021/12/31 12:44:59;;;;;;;3.00;2.80;;;14.00;1.00;;;;;;6327101;27;20386;-55
2021/12/31 12:48:02;;;;;;;3.07;2.87;;;14.10;1.00;;;;;;6329179;28;20638;-58
2021/12/31 12:51:06;;;;;;;2.73;2.70;;;14.10;1.00;;;;;;6325248;28;20776;-56
2021/12/31 12:54:13;;;;;;;3.63;3.33;;;14.10;1.00;;;;;;6331661;28;20326;-57
2021/12/31 12:57:23;;;;;;;3.00;3.00;;;14.10;1.00;;;;;;6331223;27;20914;-56
2021/12/31 13:00:35;;;;;;;3.30;3.10;;;14.10;1.00;;;;;;6332128;27;20378;-57
2021/12/31 13:03:52;;;;;;;3.23;2.90;;;14.10;1.00;;;;;;6326352;28;20437;-57
2021/12/31 13:07:00;;;;;;;3.20;3.00;;;14.10;1.00;;;;;;6327046;28;20814;-56
2021/12/31 13:10:07;;;;;;;2.93;2.83;;;14.10;1.00;;;;;;6327979;27;20255;-57
2021/12/31 13:13:10;;;;;;;2.90;2.80;;;14.10;1.00;;;;;;6323197;28;20336;-58
2021/12/31 13:16:14;;;;;;;3.70;3.40;;;14.10;1.00;;;;;;6327964;28;20354;-56
2021/12/31 13:19:28;;;;;;;3.13;2.83;;;14.10;1.00;;;;;;6323338;28;20339;-57
2021/12/31 13:22:33;;;;;;;3.10;2.97;;;14.20;1.00;;;;;;6314570;28;20941;-57
2021/12/31 13:25:44;;;;;;;5.77;2.87;;;14.20;1.00;;;;;;6333023;27;20224;-58
2021/12/31 13:28:47;;;;;;;3.60;3.27;;;14.20;1.00;;;;;;6331118;28;20262;-57
2021/12/31 13:31:50;;;;;;;3.33;3.13;;;14.30;1.00;;;;;;6325154;28;20885;-57
2021/12/31 13:34:53;;;;;;;2.83;2.83;;;14.20;1.00;;;;;;6328414;27;20239;-58
2021/12/31 13:38:06;;;;;;;3.27;3.27;;;14.20;1.00;;;;;;6323420;28;20236;-57
2021/12/31 13:41:21;;;;;;;3.10;2.90;;;14.20;1.00;;;;;;6330038;27;20279;-58
2021/12/31 13:44:29;;;;;;;5.63;3.03;;;14.20;1.00;;;;;;6324784;28;20296;-57
2021/12/31 13:47:32;;;;;;;3.40;3.30;;;14.20;1.00;;;;;;6325804;28;20364;-55
2021/12/31 13:50:35;;;;;;;3.23;2.93;;;14.20;1.00;;;;;;6322001;27;20781;-56
2021/12/31 13:53:49;;;;;;;3.33;3.03;;;14.20;1.00;;;;;;6327765;28;20298;-56
2021/12/31 13:56:53;;;;;;;3.13;3.03;;;14.30;1.00;;;;;;6309023;28;20773;-57
2021/12/31 13:59:57;;;;;;;3.27;3.17;;;14.20;1.00;;;;;;6307395;28;20844;-54
2021/12/31 14:03:11;;;;;;;3.10;3.00;;;14.30;1.00;;;;;;6330127;27;20242;-56
2021/12/31 14:06:15;;;;;;;3.57;3.37;;;14.20;1.00;;;;;;6330653;28;20224;-56
2021/12/31 14:09:18;;;;;;;3.27;3.00;;;14.20;1.00;;;;;;6328534;28;20384;-56
2021/12/31 14:12:22;;;;;;;3.23;3.03;;;14.20;1.00;;;;;;6331658;28;20357;-57
2021/12/31 14:15:29;;;;;;;3.33;3.13;;;14.20;1.00;;;;;;6329209;28;20312;-57
2021/12/31 14:18:32;;;;;;;3.13;3.00;;;14.20;1.00;;;;;;6329531;28;20243;-58
2021/12/31 14:21:34;;;;;;;4.13;3.00;;;14.20;1.00;;;;;;6329405;28;20484;-58
2021/12/31 14:24:38;;;;;;;3.40;3.17;;;14.20;1.00;;;;;;6329814;28;20263;-58
2021/12/31 14:27:42;;;;;;;3.00;3.00;;;14.20;1.00;;;;;;6332361;27;20799;-58
2021/12/31 14:30:45;;;;;;;3.20;3.10;;;14.20;1.00;;;;;;6326236;27;20909;-56
2021/12/31 14:33:48;;;;;;;3.33;3.13;;;14.20;1.00;;;;;;6320555;28;20282;-57
2021/12/31 14:36:57;;;;;;;3.10;3.00;;;14.20;1.00;;;;;;6323327;28;20377;-51
2021/12/31 14:40:01;;;;;;;3.07;2.87;;;14.10;1.00;;;;;;6326922;28;20232;-57
2021/12/31 14:43:05;;;;;;;3.17;3.00;;;14.10;1.00;;;;;;6327044;28;20369;-57
2021/12/31 14:46:08;;;;;;;3.53;3.17;;;14.10;1.00;;;;;;6328254;28;20249;-58
2021/12/31 14:49:10;;;;;;;3.40;3.20;;;14.10;1.00;;;;;;6324027;28;20228;-57
2021/12/31 14:52:15;;;;;;;3.83;3.63;;;14.10;1.00;;;;;;6321428;28;20781;-57
2021/12/31 14:55:18;;;;;;;3.47;3.30;;;14.10;1.00;;;;;;6320940;28;20239;-57
2021/12/31 14:58:23;;;;;;;3.20;3.20;;;14.10;1.00;;;;;;6329189;28;20779;-57
2021/12/31 15:01:26;;;;;;;3.40;3.23;;;14.10;1.00;;;;;;6318427;28;20260;-55
2021/12/31 15:04:29;;;;;;;3.33;3.20;;;14.10;1.00;;;;;;6331730;28;20620;-56
2021/12/31 15:07:32;;;;;;;3.57;3.37;;;14.10;1.00;;;;;;6324234;28;20319;-57
2021/12/31 15:10:34;;;;;;;3.63;3.53;;;14.00;1.00;;;;;;6324246;28;20240;-56
2021/12/31 15:13:38;;;;;;;3.00;2.80;;;14.10;1.00;;;;;;6335019;28;20319;-56
2021/12/31 15:16:41;;;;;;;3.67;3.50;;;14.20;1.00;;;;;;6329679;27;20253;-57
2021/12/31 15:19:44;;;;;;;3.40;3.30;;;14.10;1.00;;;;;;6309901;28;20240;-57
2021/12/31 15:22:47;;;;;;;3.17;3.00;;;14.10;1.00;;;;;;6306622;28;20238;-57
2021/12/31 15:25:50;;;;;;;3.70;3.57;;;14.10;1.00;;;;;;6310921;28;20301;-57
2021/12/31 15:28:54;;;;;;;3.17;3.07;;;14.00;1.00;;;;;;6310832;28;20408;-56
2021/12/31 15:31:57;;;;;;;3.53;3.30;;;14.10;1.00;;;;;;6303355;28;20309;-56
2021/12/31 15:35:00;;;;;;;3.27;3.17;;;14.10;1.00;;;;;;6305318;28;20243;-56
2021/12/31 15:38:03;;;;;;;3.30;3.20;;;14.10;1.00;;;;;;6300383;28;20251;-54
2021/12/31 15:41:06;;;;;;;3.03;3.03;;;14.10;1.00;;;;;;6316238;28;20228;-55
2021/12/31 15:44:11;;;;;;;3.30;3.17;;;14.10;1.00;;;;;;6329735;28;20944;-56
2021/12/31 15:47:14;;;;;;;3.63;3.43;;;14.00;1.00;;;;;;6323434;27;20285;-57
2021/12/31 15:50:17;;;;;;;3.70;3.40;;;13.90;1.00;;;;;;6327363;28;20281;-56
2021/12/31 15:53:19;;;;;;;3.30;3.20;;;13.90;1.00;;;;;;6330101;28;20293;-56
2021/12/31 15:56:22;;;;;;;3.23;3.23;;;13.90;1.00;;;;;;6325459;27;20238;-57
2021/12/31 15:59:26;;;;;;;4.03;3.53;;;13.90;1.00;;;;;;6337946;27;20232;-56
2021/12/31 16:02:30;;;;;;;3.67;3.47;;;13.90;1.00;;;;;;6333126;28;20804;-58
2021/12/31 16:05:33;;;;;;;3.37;3.27;;;13.80;1.00;;;;;;6329820;27;20642;-56